Portada
METAR-TAF:

METAR-TAF

Aeropuertos :

Aeropuerto Internacional de Tan Son Nhat

Ciudad Ho Chi Minh, Vietnam

latitud: 10-49N, longitud: 106-40E, altitud: 19 m

Observación

El informe se hizo hace 39 minutos, a las 13:30 UTC
Viento 8 kt del sur-sureste, variando entre sureste y sur
Temperatura 30°C
Humedad 75%
Presión 1007 hPa
Visibilidad 10 km o más
Escasas nubes a una altura de 1700 ft
Nubes dispersas a una altura de 5000 ft

METAR: VVTS 241330Z 16008KT 130V190 9999 FEW017 SCT050 30/25 Q1007 NOSIG

Hora: 21:09 (14:09 UTC)

Pronóstico

El informe se hizo hace 3 horas y 9 minutos, a las 11:00 UTC
Pronóstico válido del 24 a las 12 UTC al 25 a las 18 UTC
Viento 9 kt del sur-sureste
Visibilidad 10 km o más
Nubes dispersas a una altura de 1700 ft

TAF: VVTS 241100Z 2412/2518 15009KT 9999 SCT017

Observaciones y pronósticos meteorológicos de más de 4000 aeropuertos (mensajes METAR y TAF).

Los puntos amarillos y rojos representan las estaciones disponibles.

Ponga el ratón en el punto deseado para ver el nombre de la estación.

Haga clic para ver las observaciones y los pronósticos meteorológicos.

Para cambiar el mapa : haga clic en los botones verdes con una cruz de color negro para hacer un zoom, en el botón verde con un guión para alejar o en las flechas verdes para mapas adyacentes.


METAR-TAF: